sensor_id;sensor_type;location;lat;lon;timestamp;P1;durP1;ratioP1;P2;durP2;ratioP2
45274;SDS011;31019;43.780;25.948;2023-05-23T00:02:22;61.92;;;56.13;;
45274;SDS011;31019;43.780;25.948;2023-05-23T00:04:50;59.45;;;53.55;;
45274;SDS011;31019;43.780;25.948;2023-05-23T00:07:22;55.55;;;50.20;;
45274;SDS011;31019;43.780;25.948;2023-05-23T00:09:50;88.47;;;81.18;;
45274;SDS011;31019;43.780;25.948;2023-05-23T00:12:17;67.50;;;61.00;;
45274;SDS011;31019;43.780;25.948;2023-05-23T00:14:44;72.35;;;65.82;;
45274;SDS011;31019;43.780;25.948;2023-05-23T00:17:12;78.03;;;71.18;;
45274;SDS011;31019;43.780;25.948;2023-05-23T00:19:38;71.40;;;65.10;;
45274;SDS011;31019;43.780;25.948;2023-05-23T00:22:07;84.25;;;77.03;;
45274;SDS011;31019;43.780;25.948;2023-05-23T00:24:34;70.68;;;63.75;;
45274;SDS011;31019;43.780;25.948;2023-05-23T00:27:02;73.88;;;67.30;;
45274;SDS011;31019;43.780;25.948;2023-05-23T00:29:29;87.22;;;79.95;;
45274;SDS011;31019;43.780;25.948;2023-05-23T00:31:55;57.83;;;51.53;;
45274;SDS011;31019;43.780;25.948;2023-05-23T00:34:22;60.75;;;54.95;;
45274;SDS011;31019;43.780;25.948;2023-05-23T00:36:49;69.28;;;62.80;;
45274;SDS011;31019;43.780;25.948;2023-05-23T00:39:17;65.78;;;59.88;;
45274;SDS011;31019;43.780;25.948;2023-05-23T00:41:45;62.80;;;56.65;;
45274;SDS011;31019;43.780;25.948;2023-05-23T00:44:13;59.08;;;53.38;;
45274;SDS011;31019;43.780;25.948;2023-05-23T00:46:40;63.22;;;57.63;;
45274;SDS011;31019;43.780;25.948;2023-05-23T00:49:11;61.47;;;55.38;;
45274;SDS011;31019;43.780;25.948;2023-05-23T00:51:38;68.85;;;62.83;;
45274;SDS011;31019;43.780;25.948;2023-05-23T00:54:07;59.88;;;54.35;;
45274;SDS011;31019;43.780;25.948;2023-05-23T00:56:36;59.22;;;53.72;;
45274;SDS011;31019;43.780;25.948;2023-05-23T00:59:04;61.45;;;55.65;;
45274;SDS011;31019;43.780;25.948;2023-05-23T01:01:33;65.22;;;59.33;;
45274;SDS011;31019;43.780;25.948;2023-05-23T01:04:01;69.30;;;63.00;;
45274;SDS011;31019;43.780;25.948;2023-05-23T01:06:28;70.50;;;64.20;;
45274;SDS011;31019;43.780;25.948;2023-05-23T01:08:57;66.13;;;60.03;;
45274;SDS011;31019;43.780;25.948;2023-05-23T01:11:27;72.30;;;65.82;;
45274;SDS011;31019;43.780;25.948;2023-05-23T01:14:03;65.22;;;59.03;;
45274;SDS011;31019;43.780;25.948;2023-05-23T01:16:41;62.95;;;56.33;;
45274;SDS011;31019;43.780;25.948;2023-05-23T01:19:22;69.22;;;62.92;;
45274;SDS011;31019;43.780;25.948;2023-05-23T01:22:05;67.22;;;60.90;;
45274;SDS011;31019;43.780;25.948;2023-05-23T01:24:44;67.30;;;61.40;;
45274;SDS011;31019;43.780;25.948;2023-05-23T01:27:22;68.00;;;62.08;;
45274;SDS011;31019;43.780;25.948;2023-05-23T01:29:57;59.25;;;53.72;;
45274;SDS011;31019;43.780;25.948;2023-05-23T01:32:29;70.60;;;64.50;;
45274;SDS011;31019;43.780;25.948;2023-05-23T01:34:58;68.53;;;62.33;;
45274;SDS011;31019;43.780;25.948;2023-05-23T01:37:26;67.30;;;61.28;;
45274;SDS011;31019;43.780;25.948;2023-05-23T01:39:54;67.65;;;61.45;;
45274;SDS011;31019;43.780;25.948;2023-05-23T01:42:20;76.80;;;70.10;;
45274;SDS011;31019;43.780;25.948;2023-05-23T01:44:47;75.10;;;68.60;;
45274;SDS011;31019;43.780;25.948;2023-05-23T01:47:16;62.95;;;57.35;;
45274;SDS011;31019;43.780;25.948;2023-05-23T01:49:43;68.20;;;62.20;;
45274;SDS011;31019;43.780;25.948;2023-05-23T01:52:12;76.60;;;70.10;;
45274;SDS011;31019;43.780;25.948;2023-05-23T01:54:40;68.88;;;62.97;;
45274;SDS011;31019;43.780;25.948;2023-05-23T01:57:08;68.88;;;62.50;;
45274;SDS011;31019;43.780;25.948;2023-05-23T01:59:36;68.28;;;62.33;;
45274;SDS011;31019;43.780;25.948;2023-05-23T02:02:03;67.55;;;61.65;;
45274;SDS011;31019;43.780;25.948;2023-05-23T02:04:33;66.75;;;61.05;;
45274;SDS011;31019;43.780;25.948;2023-05-23T02:07:01;78.57;;;72.20;;
45274;SDS011;31019;43.780;25.948;2023-05-23T02:09:28;89.78;;;82.97;;
45274;SDS011;31019;43.780;25.948;2023-05-23T02:11:55;93.05;;;85.90;;
45274;SDS011;31019;43.780;25.948;2023-05-23T02:14:21;95.65;;;88.55;;
45274;SDS011;31019;43.780;25.948;2023-05-23T02:16:50;69.80;;;63.90;;
45274;SDS011;31019;43.780;25.948;2023-05-23T02:19:18;78.68;;;71.93;;
45274;SDS011;31019;43.780;25.948;2023-05-23T02:21:46;90.80;;;83.47;;
45274;SDS011;31019;43.780;25.948;2023-05-23T02:24:13;73.35;;;67.15;;
45274;SDS011;31019;43.780;25.948;2023-05-23T02:26:39;84.32;;;77.72;;
45274;SDS011;31019;43.780;25.948;2023-05-23T02:29:07;71.80;;;65.70;;
45274;SDS011;31019;43.780;25.948;2023-05-23T02:31:33;69.47;;;63.08;;
45274;SDS011;31019;43.780;25.948;2023-05-23T02:34:01;55.55;;;49.83;;
45274;SDS011;31019;43.780;25.948;2023-05-23T02:36:28;62.33;;;56.63;;
45274;SDS011;31019;43.780;25.948;2023-05-23T02:38:58;50.70;;;45.47;;
45274;SDS011;31019;43.780;25.948;2023-05-23T02:41:25;51.08;;;45.95;;
45274;SDS011;31019;43.780;25.948;2023-05-23T02:43:52;45.17;;;40.75;;
45274;SDS011;31019;43.780;25.948;2023-05-23T02:46:19;45.03;;;40.53;;
45274;SDS011;31019;43.780;25.948;2023-05-23T02:48:46;50.55;;;45.75;;
45274;SDS011;31019;43.780;25.948;2023-05-23T02:51:13;50.45;;;45.50;;
45274;SDS011;31019;43.780;25.948;2023-05-23T02:53:40;48.78;;;44.28;;
45274;SDS011;31019;43.780;25.948;2023-05-23T02:56:08;48.65;;;44.28;;
45274;SDS011;31019;43.780;25.948;2023-05-23T02:58:37;53.35;;;48.33;;
45274;SDS011;31019;43.780;25.948;2023-05-23T03:01:04;56.83;;;51.38;;
45274;SDS011;31019;43.780;25.948;2023-05-23T03:03:33;54.17;;;48.83;;
45274;SDS011;31019;43.780;25.948;2023-05-23T03:06:01;49.97;;;45.17;;
45274;SDS011;31019;43.780;25.948;2023-05-23T03:08:29;50.38;;;45.55;;
45274;SDS011;31019;43.780;25.948;2023-05-23T03:10:56;50.05;;;45.08;;
45274;SDS011;31019;43.780;25.948;2023-05-23T03:13:24;51.92;;;47.13;;
45274;SDS011;31019;43.780;25.948;2023-05-23T03:15:54;51.35;;;46.08;;
45274;SDS011;31019;43.780;25.948;2023-05-23T03:18:21;48.25;;;43.75;;
45274;SDS011;31019;43.780;25.948;2023-05-23T03:20:48;49.60;;;44.80;;
45274;SDS011;31019;43.780;25.948;2023-05-23T03:23:15;49.40;;;44.40;;
45274;SDS011;31019;43.780;25.948;2023-05-23T03:25:42;48.83;;;44.05;;
45274;SDS011;31019;43.780;25.948;2023-05-23T03:28:09;50.38;;;45.78;;
45274;SDS011;31019;43.780;25.948;2023-05-23T03:30:37;53.70;;;48.42;;
45274;SDS011;31019;43.780;25.948;2023-05-23T03:33:04;47.65;;;43.00;;
45274;SDS011;31019;43.780;25.948;2023-05-23T03:35:32;50.70;;;46.20;;
45274;SDS011;31019;43.780;25.948;2023-05-23T03:37:58;50.88;;;46.17;;
45274;SDS011;31019;43.780;25.948;2023-05-23T03:40:25;50.22;;;45.53;;
45274;SDS011;31019;43.780;25.948;2023-05-23T03:43:00;49.95;;;44.95;;
45274;SDS011;31019;43.780;25.948;2023-05-23T03:45:28;50.50;;;45.80;;
45274;SDS011;31019;43.780;25.948;2023-05-23T03:47:57;50.35;;;45.70;;
45274;SDS011;31019;43.780;25.948;2023-05-23T03:50:23;46.90;;;42.53;;
45274;SDS011;31019;43.780;25.948;2023-05-23T03:52:50;50.00;;;45.58;;
45274;SDS011;31019;43.780;25.948;2023-05-23T03:55:17;52.10;;;47.10;;
45274;SDS011;31019;43.780;25.948;2023-05-23T03:57:46;52.17;;;47.08;;
45274;SDS011;31019;43.780;25.948;2023-05-23T04:00:13;55.33;;;50.22;;
45274;SDS011;31019;43.780;25.948;2023-05-23T04:02:40;57.25;;;51.97;;
45274;SDS011;31019;43.780;25.948;2023-05-23T04:05:09;51.90;;;47.05;;
45274;SDS011;31019;43.780;25.948;2023-05-23T04:07:36;52.40;;;47.65;;
45274;SDS011;31019;43.780;25.948;2023-05-23T04:10:03;49.97;;;45.67;;
45274;SDS011;31019;43.780;25.948;2023-05-23T04:12:34;51.40;;;46.90;;
45274;SDS011;31019;43.780;25.948;2023-05-23T04:15:06;51.95;;;47.25;;
45274;SDS011;31019;43.780;25.948;2023-05-23T04:17:34;51.58;;;46.90;;
45274;SDS011;31019;43.780;25.948;2023-05-23T04:20:05;49.60;;;45.08;;
45274;SDS011;31019;43.780;25.948;2023-05-23T04:22:35;52.67;;;47.53;;
45274;SDS011;31019;43.780;25.948;2023-05-23T04:25:02;53.15;;;47.95;;
45274;SDS011;31019;43.780;25.948;2023-05-23T04:27:29;52.80;;;48.00;;
45274;SDS011;31019;43.780;25.948;2023-05-23T04:29:56;58.17;;;52.83;;
45274;SDS011;31019;43.780;25.948;2023-05-23T04:32:24;54.47;;;49.08;;
45274;SDS011;31019;43.780;25.948;2023-05-23T04:34:51;55.90;;;50.30;;
45274;SDS011;31019;43.780;25.948;2023-05-23T04:37:18;54.67;;;49.78;;
45274;SDS011;31019;43.780;25.948;2023-05-23T04:39:51;53.72;;;48.30;;
45274;SDS011;31019;43.780;25.948;2023-05-23T04:42:21;52.03;;;47.25;;
45274;SDS011;31019;43.780;25.948;2023-05-23T04:44:48;52.45;;;47.13;;
45274;SDS011;31019;43.780;25.948;2023-05-23T04:47:15;55.25;;;50.10;;
45274;SDS011;31019;43.780;25.948;2023-05-23T04:49:43;50.95;;;46.33;;
45274;SDS011;31019;43.780;25.948;2023-05-23T04:52:10;52.75;;;48.05;;
45274;SDS011;31019;43.780;25.948;2023-05-23T04:54:37;52.83;;;48.20;;
45274;SDS011;31019;43.780;25.948;2023-05-23T04:57:10;52.45;;;47.70;;
45274;SDS011;31019;43.780;25.948;2023-05-23T04:59:36;53.80;;;49.00;;
45274;SDS011;31019;43.780;25.948;2023-05-23T05:02:03;57.83;;;52.22;;
45274;SDS011;31019;43.780;25.948;2023-05-23T05:04:34;59.88;;;54.03;;
45274;SDS011;31019;43.780;25.948;2023-05-23T05:07:01;63.42;;;57.80;;
45274;SDS011;31019;43.780;25.948;2023-05-23T05:09:28;62.25;;;56.83;;
45274;SDS011;31019;43.780;25.948;2023-05-23T05:11:55;60.17;;;54.55;;
45274;SDS011;31019;43.780;25.948;2023-05-23T05:14:25;64.88;;;58.80;;
45274;SDS011;31019;43.780;25.948;2023-05-23T05:16:52;70.93;;;64.00;;
45274;SDS011;31019;43.780;25.948;2023-05-23T05:19:21;67.93;;;61.97;;
45274;SDS011;31019;43.780;25.948;2023-05-23T05:21:48;69.53;;;63.33;;
45274;SDS011;31019;43.780;25.948;2023-05-23T05:24:15;67.82;;;61.95;;
45274;SDS011;31019;43.780;25.948;2023-05-23T05:26:45;67.45;;;61.45;;
45274;SDS011;31019;43.780;25.948;2023-05-23T05:29:12;69.63;;;63.30;;
45274;SDS011;31019;43.780;25.948;2023-05-23T05:31:40;68.70;;;62.17;;
45274;SDS011;31019;43.780;25.948;2023-05-23T05:34:09;71.15;;;64.63;;
45274;SDS011;31019;43.780;25.948;2023-05-23T05:36:36;77.07;;;70.25;;
45274;SDS011;31019;43.780;25.948;2023-05-23T05:39:09;80.07;;;73.13;;
45274;SDS011;31019;43.780;25.948;2023-05-23T05:41:37;82.57;;;75.10;;
45274;SDS011;31019;43.780;25.948;2023-05-23T05:44:07;91.90;;;84.07;;
45274;SDS011;31019;43.780;25.948;2023-05-23T05:46:35;97.32;;;89.50;;
45274;SDS011;31019;43.780;25.948;2023-05-23T05:49:03;97.88;;;89.38;;
45274;SDS011;31019;43.780;25.948;2023-05-23T05:51:30;103.95;;;95.55;;
45274;SDS011;31019;43.780;25.948;2023-05-23T05:53:57;97.85;;;89.22;;
45274;SDS011;31019;43.780;25.948;2023-05-23T05:56:24;98.50;;;90.78;;
45274;SDS011;31019;43.780;25.948;2023-05-23T05:58:52;96.95;;;88.93;;
45274;SDS011;31019;43.780;25.948;2023-05-23T06:01:19;97.80;;;89.60;;
45274;SDS011;31019;43.780;25.948;2023-05-23T06:03:46;98.13;;;90.03;;
45274;SDS011;31019;43.780;25.948;2023-05-23T06:06:14;98.07;;;89.55;;
45274;SDS011;31019;43.780;25.948;2023-05-23T06:08:41;101.88;;;93.30;;
45274;SDS011;31019;43.780;25.948;2023-05-23T06:11:08;107.15;;;98.35;;
45274;SDS011;31019;43.780;25.948;2023-05-23T06:13:36;94.05;;;86.35;;
45274;SDS011;31019;43.780;25.948;2023-05-23T06:16:03;88.07;;;80.47;;
45274;SDS011;31019;43.780;25.948;2023-05-23T06:18:30;89.65;;;82.15;;
45274;SDS011;31019;43.780;25.948;2023-05-23T06:20:57;79.05;;;72.53;;
45274;SDS011;31019;43.780;25.948;2023-05-23T06:23:26;69.78;;;63.88;;
45274;SDS011;31019;43.780;25.948;2023-05-23T06:25:52;75.85;;;69.45;;
45274;SDS011;31019;43.780;25.948;2023-05-23T06:28:19;84.82;;;77.93;;
45274;SDS011;31019;43.780;25.948;2023-05-23T06:30:46;67.50;;;61.63;;
45274;SDS011;31019;43.780;25.948;2023-05-23T06:33:13;68.05;;;62.45;;
45274;SDS011;31019;43.780;25.948;2023-05-23T06:35:41;65.00;;;59.28;;
45274;SDS011;31019;43.780;25.948;2023-05-23T06:38:08;57.63;;;52.50;;
45274;SDS011;31019;43.780;25.948;2023-05-23T06:40:36;55.17;;;50.38;;
45274;SDS011;31019;43.780;25.948;2023-05-23T06:43:03;48.53;;;44.15;;
45274;SDS011;31019;43.780;25.948;2023-05-23T06:45:30;55.08;;;50.15;;
45274;SDS011;31019;43.780;25.948;2023-05-23T06:47:59;51.78;;;46.80;;
45274;SDS011;31019;43.780;25.948;2023-05-23T06:50:26;62.35;;;56.42;;
45274;SDS011;31019;43.780;25.948;2023-05-23T06:52:53;47.95;;;43.25;;
45274;SDS011;31019;43.780;25.948;2023-05-23T06:55:20;46.30;;;42.05;;
45274;SDS011;31019;43.780;25.948;2023-05-23T06:57:49;44.90;;;40.40;;
45274;SDS011;31019;43.780;25.948;2023-05-23T07:00:16;42.28;;;38.03;;
45274;SDS011;31019;43.780;25.948;2023-05-23T07:02:44;40.33;;;36.75;;
45274;SDS011;31019;43.780;25.948;2023-05-23T07:05:12;42.45;;;38.17;;
45274;SDS011;31019;43.780;25.948;2023-05-23T07:07:39;43.03;;;38.83;;
45274;SDS011;31019;43.780;25.948;2023-05-23T07:10:07;51.17;;;46.25;;
45274;SDS011;31019;43.780;25.948;2023-05-23T07:12:34;50.83;;;45.75;;
45274;SDS011;31019;43.780;25.948;2023-05-23T07:15:03;49.58;;;44.67;;
45274;SDS011;31019;43.780;25.948;2023-05-23T07:17:30;38.33;;;34.80;;
45274;SDS011;31019;43.780;25.948;2023-05-23T07:19:57;39.17;;;34.63;;
45274;SDS011;31019;43.780;25.948;2023-05-23T07:22:24;39.45;;;35.55;;
45274;SDS011;31019;43.780;25.948;2023-05-23T07:24:51;32.97;;;30.05;;
45274;SDS011;31019;43.780;25.948;2023-05-23T07:27:18;36.55;;;33.17;;
45274;SDS011;31019;43.780;25.948;2023-05-23T07:29:45;31.65;;;28.88;;
45274;SDS011;31019;43.780;25.948;2023-05-23T07:32:13;31.77;;;28.85;;
45274;SDS011;31019;43.780;25.948;2023-05-23T07:34:40;30.17;;;27.63;;
45274;SDS011;31019;43.780;25.948;2023-05-23T07:37:07;35.65;;;32.30;;
45274;SDS011;31019;43.780;25.948;2023-05-23T07:39:34;28.98;;;26.38;;
45274;SDS011;31019;43.780;25.948;2023-05-23T07:42:04;33.20;;;29.83;;
45274;SDS011;31019;43.780;25.948;2023-05-23T07:44:31;34.30;;;31.13;;
45274;SDS011;31019;43.780;25.948;2023-05-23T07:46:57;33.20;;;29.98;;
45274;SDS011;31019;43.780;25.948;2023-05-23T07:49:26;34.65;;;31.52;;
45274;SDS011;31019;43.780;25.948;2023-05-23T07:51:53;30.20;;;27.33;;
45274;SDS011;31019;43.780;25.948;2023-05-23T07:54:20;34.22;;;31.17;;
45274;SDS011;31019;43.780;25.948;2023-05-23T07:56:46;31.63;;;28.88;;
45274;SDS011;31019;43.780;25.948;2023-05-23T07:59:13;30.02;;;27.73;;
45274;SDS011;31019;43.780;25.948;2023-05-23T08:01:40;35.08;;;31.95;;
45274;SDS011;31019;43.780;25.948;2023-05-23T08:04:08;27.92;;;25.73;;
45274;SDS011;31019;43.780;25.948;2023-05-23T08:06:37;25.50;;;23.30;;
45274;SDS011;31019;43.780;25.948;2023-05-23T08:09:05;28.55;;;26.40;;
45274;SDS011;31019;43.780;25.948;2023-05-23T08:11:31;28.02;;;25.90;;
45274;SDS011;31019;43.780;25.948;2023-05-23T08:13:58;27.10;;;24.98;;
45274;SDS011;31019;43.780;25.948;2023-05-23T08:16:26;28.60;;;26.38;;
45274;SDS011;31019;43.780;25.948;2023-05-23T08:18:53;27.65;;;25.35;;
45274;SDS011;31019;43.780;25.948;2023-05-23T08:21:20;27.75;;;25.20;;
45274;SDS011;31019;43.780;25.948;2023-05-23T08:23:49;101.43;;;49.30;;
45274;SDS011;31019;43.780;25.948;2023-05-23T08:26:16;56.35;;;35.05;;
45274;SDS011;31019;43.780;25.948;2023-05-23T08:28:43;34.45;;;27.38;;
45274;SDS011;31019;43.780;25.948;2023-05-23T08:31:10;104.78;;;54.42;;
45274;SDS011;31019;43.780;25.948;2023-05-23T08:33:37;29.38;;;26.30;;
45274;SDS011;31019;43.780;25.948;2023-05-23T08:36:05;79.65;;;44.25;;
45274;SDS011;31019;43.780;25.948;2023-05-23T08:38:32;62.10;;;38.72;;
45274;SDS011;31019;43.780;25.948;2023-05-23T08:41:06;24.50;;;22.50;;
45274;SDS011;31019;43.780;25.948;2023-05-23T08:43:41;23.33;;;21.52;;
45274;SDS011;31019;43.780;25.948;2023-05-23T08:46:08;23.33;;;21.20;;
45274;SDS011;31019;43.780;25.948;2023-05-23T08:48:35;22.92;;;20.80;;
45274;SDS011;31019;43.780;25.948;2023-05-23T08:51:04;23.52;;;21.52;;
45274;SDS011;31019;43.780;25.948;2023-05-23T08:53:35;23.85;;;21.85;;
45274;SDS011;31019;43.780;25.948;2023-05-23T08:56:05;25.10;;;22.98;;
45274;SDS011;31019;43.780;25.948;2023-05-23T08:58:32;25.15;;;23.00;;
45274;SDS011;31019;43.780;25.948;2023-05-23T09:01:00;23.98;;;22.13;;
45274;SDS011;31019;43.780;25.948;2023-05-23T09:03:27;22.30;;;20.50;;
45274;SDS011;31019;43.780;25.948;2023-05-23T09:05:55;25.35;;;23.17;;
45274;SDS011;31019;43.780;25.948;2023-05-23T09:08:23;32.70;;;26.27;;
45274;SDS011;31019;43.780;25.948;2023-05-23T09:10:50;25.45;;;23.05;;
45274;SDS011;31019;43.780;25.948;2023-05-23T09:13:18;23.52;;;21.60;;
45274;SDS011;31019;43.780;25.948;2023-05-23T09:15:55;24.08;;;22.08;;
45274;SDS011;31019;43.780;25.948;2023-05-23T09:18:24;23.23;;;21.15;;
45274;SDS011;31019;43.780;25.948;2023-05-23T09:20:51;21.38;;;19.67;;
45274;SDS011;31019;43.780;25.948;2023-05-23T09:23:18;24.70;;;22.73;;
45274;SDS011;31019;43.780;25.948;2023-05-23T09:25:45;23.80;;;21.90;;
45274;SDS011;31019;43.780;25.948;2023-05-23T09:28:13;23.42;;;21.63;;
45274;SDS011;31019;43.780;25.948;2023-05-23T09:30:41;22.73;;;21.10;;
45274;SDS011;31019;43.780;25.948;2023-05-23T09:33:08;23.45;;;21.48;;
45274;SDS011;31019;43.780;25.948;2023-05-23T09:35:37;22.25;;;20.35;;
45274;SDS011;31019;43.780;25.948;2023-05-23T09:38:09;25.98;;;24.05;;
45274;SDS011;31019;43.780;25.948;2023-05-23T09:40:36;24.92;;;23.00;;
45274;SDS011;31019;43.780;25.948;2023-05-23T09:43:09;24.48;;;22.65;;
45274;SDS011;31019;43.780;25.948;2023-05-23T09:45:36;24.27;;;22.50;;
45274;SDS011;31019;43.780;25.948;2023-05-23T09:48:06;24.45;;;22.50;;
45274;SDS011;31019;43.780;25.948;2023-05-23T09:50:38;23.38;;;21.48;;
45274;SDS011;31019;43.780;25.948;2023-05-23T09:53:05;24.75;;;22.85;;
45274;SDS011;31019;43.780;25.948;2023-05-23T09:55:32;23.52;;;21.70;;
45274;SDS011;31019;43.780;25.948;2023-05-23T09:57:59;24.80;;;22.90;;
45274;SDS011;31019;43.780;25.948;2023-05-23T10:00:27;24.10;;;21.95;;
45274;SDS011;31019;43.780;25.948;2023-05-23T10:03:01;24.63;;;22.55;;
45274;SDS011;31019;43.780;25.948;2023-05-23T10:05:37;25.67;;;23.98;;
45274;SDS011;31019;43.780;25.948;2023-05-23T10:08:11;25.10;;;23.27;;
45274;SDS011;31019;43.780;25.948;2023-05-23T10:13:58;24.60;;;22.45;;
45274;SDS011;31019;43.780;25.948;2023-05-23T10:16:29;25.42;;;23.52;;
45274;SDS011;31019;43.780;25.948;2023-05-23T10:19:09;26.38;;;24.58;;
45274;SDS011;31019;43.780;25.948;2023-05-23T10:21:42;23.90;;;22.15;;
45274;SDS011;31019;43.780;25.948;2023-05-23T10:24:12;23.98;;;22.00;;
45274;SDS011;31019;43.780;25.948;2023-05-23T10:26:40;23.35;;;21.65;;
45274;SDS011;31019;43.780;25.948;2023-05-23T10:29:08;25.60;;;23.67;;
45274;SDS011;31019;43.780;25.948;2023-05-23T10:31:35;23.02;;;21.35;;
45274;SDS011;31019;43.780;25.948;2023-05-23T10:34:09;23.65;;;21.80;;
45274;SDS011;31019;43.780;25.948;2023-05-23T10:36:47;22.70;;;20.88;;
45274;SDS011;31019;43.780;25.948;2023-05-23T10:39:26;22.80;;;20.80;;
45274;SDS011;31019;43.780;25.948;2023-05-23T10:42:01;22.95;;;20.92;;
45274;SDS011;31019;43.780;25.948;2023-05-23T10:44:32;21.88;;;20.10;;
45274;SDS011;31019;43.780;25.948;2023-05-23T10:47:00;21.42;;;19.73;;
45274;SDS011;31019;43.780;25.948;2023-05-23T10:49:40;22.65;;;20.70;;
45274;SDS011;31019;43.780;25.948;2023-05-23T10:52:08;23.40;;;21.45;;
45274;SDS011;31019;43.780;25.948;2023-05-23T10:54:41;22.15;;;20.40;;
45274;SDS011;31019;43.780;25.948;2023-05-23T10:57:09;23.45;;;21.67;;
45274;SDS011;31019;43.780;25.948;2023-05-23T10:59:37;23.10;;;21.20;;
45274;SDS011;31019;43.780;25.948;2023-05-23T11:02:08;21.05;;;18.98;;
45274;SDS011;31019;43.780;25.948;2023-05-23T11:04:41;20.92;;;19.33;;
45274;SDS011;31019;43.780;25.948;2023-05-23T11:10:03;20.33;;;18.73;;
45274;SDS011;31019;43.780;25.948;2023-05-23T11:12:37;20.23;;;18.73;;
45274;SDS011;31019;43.780;25.948;2023-05-23T11:17:49;21.50;;;20.05;;
45274;SDS011;31019;43.780;25.948;2023-05-23T11:20:19;22.67;;;21.00;;
45274;SDS011;31019;43.780;25.948;2023-05-23T11:22:58;22.73;;;21.15;;
45274;SDS011;31019;43.780;25.948;2023-05-23T11:25:39;22.27;;;20.85;;
45274;SDS011;31019;43.780;25.948;2023-05-23T11:28:07;22.33;;;20.95;;
45274;SDS011;31019;43.780;25.948;2023-05-23T11:30:37;25.50;;;23.95;;
45274;SDS011;31019;43.780;25.948;2023-05-23T11:33:08;22.48;;;20.88;;
45274;SDS011;31019;43.780;25.948;2023-05-23T11:35:39;21.38;;;19.83;;
45274;SDS011;31019;43.780;25.948;2023-05-23T11:38:07;21.67;;;20.17;;
45274;SDS011;31019;43.780;25.948;2023-05-23T11:40:35;24.02;;;22.33;;
45274;SDS011;31019;43.780;25.948;2023-05-23T11:43:04;23.35;;;21.45;;
45274;SDS011;31019;43.780;25.948;2023-05-23T11:45:31;23.83;;;21.77;;
45274;SDS011;31019;43.780;25.948;2023-05-23T11:48:09;24.30;;;22.50;;
45274;SDS011;31019;43.780;25.948;2023-05-23T11:50:48;23.08;;;21.55;;
45274;SDS011;31019;43.780;25.948;2023-05-23T11:53:16;22.23;;;20.63;;
45274;SDS011;31019;43.780;25.948;2023-05-23T11:55:49;20.92;;;19.33;;
45274;SDS011;31019;43.780;25.948;2023-05-23T11:58:17;21.83;;;20.27;;
45274;SDS011;31019;43.780;25.948;2023-05-23T12:00:44;23.02;;;21.20;;
45274;SDS011;31019;43.780;25.948;2023-05-23T12:03:11;21.05;;;19.20;;
45274;SDS011;31019;43.780;25.948;2023-05-23T12:05:38;21.52;;;19.73;;
45274;SDS011;31019;43.780;25.948;2023-05-23T12:08:11;20.80;;;19.15;;
45274;SDS011;31019;43.780;25.948;2023-05-23T12:10:47;21.77;;;20.13;;
45274;SDS011;31019;43.780;25.948;2023-05-23T12:13:15;20.73;;;19.05;;
45274;SDS011;31019;43.780;25.948;2023-05-23T12:15:42;21.48;;;20.08;;
45274;SDS011;31019;43.780;25.948;2023-05-23T12:18:09;20.95;;;19.38;;
45274;SDS011;31019;43.780;25.948;2023-05-23T12:20:39;21.33;;;19.63;;
45274;SDS011;31019;43.780;25.948;2023-05-23T12:23:06;21.35;;;19.58;;
45274;SDS011;31019;43.780;25.948;2023-05-23T12:25:38;21.40;;;19.77;;
45274;SDS011;31019;43.780;25.948;2023-05-23T12:28:06;21.52;;;19.83;;
45274;SDS011;31019;43.780;25.948;2023-05-23T12:30:39;21.08;;;19.48;;
45274;SDS011;31019;43.780;25.948;2023-05-23T12:33:07;20.63;;;18.67;;
45274;SDS011;31019;43.780;25.948;2023-05-23T12:35:35;20.00;;;18.50;;
45274;SDS011;31019;43.780;25.948;2023-05-23T12:38:04;22.30;;;20.40;;
45274;SDS011;31019;43.780;25.948;2023-05-23T12:40:32;24.27;;;22.58;;
45274;SDS011;31019;43.780;25.948;2023-05-23T12:43:07;22.50;;;20.90;;
45274;SDS011;31019;43.780;25.948;2023-05-23T12:45:38;21.58;;;20.08;;
45274;SDS011;31019;43.780;25.948;2023-05-23T12:48:04;21.77;;;20.05;;
45274;SDS011;31019;43.780;25.948;2023-05-23T12:50:32;23.48;;;21.98;;
45274;SDS011;31019;43.780;25.948;2023-05-23T12:52:59;21.45;;;19.85;;
45274;SDS011;31019;43.780;25.948;2023-05-23T12:55:26;21.98;;;20.23;;
45274;SDS011;31019;43.780;25.948;2023-05-23T12:57:53;21.50;;;19.60;;
45274;SDS011;31019;43.780;25.948;2023-05-23T13:00:21;21.50;;;19.80;;
45274;SDS011;31019;43.780;25.948;2023-05-23T13:02:48;20.48;;;18.98;;
45274;SDS011;31019;43.780;25.948;2023-05-23T13:05:15;20.90;;;19.20;;
45274;SDS011;31019;43.780;25.948;2023-05-23T13:07:42;22.98;;;20.95;;
45274;SDS011;31019;43.780;25.948;2023-05-23T13:10:09;22.83;;;21.02;;
45274;SDS011;31019;43.780;25.948;2023-05-23T13:12:36;22.52;;;20.73;;
45274;SDS011;31019;43.780;25.948;2023-05-23T13:15:04;22.45;;;20.90;;
45274;SDS011;31019;43.780;25.948;2023-05-23T13:17:35;22.40;;;20.45;;
45274;SDS011;31019;43.780;25.948;2023-05-23T13:20:03;22.23;;;20.40;;
45274;SDS011;31019;43.780;25.948;2023-05-23T13:22:31;21.65;;;20.05;;
45274;SDS011;31019;43.780;25.948;2023-05-23T13:24:58;21.92;;;20.13;;
45274;SDS011;31019;43.780;25.948;2023-05-23T13:27:25;21.65;;;19.95;;
45274;SDS011;31019;43.780;25.948;2023-05-23T13:29:52;21.25;;;19.55;;
45274;SDS011;31019;43.780;25.948;2023-05-23T13:32:19;21.10;;;19.35;;
45274;SDS011;31019;43.780;25.948;2023-05-23T13:34:47;21.20;;;19.38;;
45274;SDS011;31019;43.780;25.948;2023-05-23T13:37:14;20.23;;;18.52;;
45274;SDS011;31019;43.780;25.948;2023-05-23T13:39:41;20.65;;;18.95;;
45274;SDS011;31019;43.780;25.948;2023-05-23T13:42:08;21.45;;;19.48;;
45274;SDS011;31019;43.780;25.948;2023-05-23T13:44:35;20.80;;;19.00;;
45274;SDS011;31019;43.780;25.948;2023-05-23T13:47:08;20.48;;;18.80;;
45274;SDS011;31019;43.780;25.948;2023-05-23T13:49:36;20.30;;;18.70;;
45274;SDS011;31019;43.780;25.948;2023-05-23T13:52:05;20.58;;;18.90;;
45274;SDS011;31019;43.780;25.948;2023-05-23T13:54:31;21.70;;;19.85;;
45274;SDS011;31019;43.780;25.948;2023-05-23T13:56:59;21.45;;;19.48;;
45274;SDS011;31019;43.780;25.948;2023-05-23T13:59:26;20.95;;;19.25;;
45274;SDS011;31019;43.780;25.948;2023-05-23T14:01:53;21.33;;;19.63;;
45274;SDS011;31019;43.780;25.948;2023-05-23T14:04:20;20.13;;;18.58;;
45274;SDS011;31019;43.780;25.948;2023-05-23T14:06:47;21.58;;;19.85;;
45274;SDS011;31019;43.780;25.948;2023-05-23T14:09:16;20.40;;;18.80;;
45274;SDS011;31019;43.780;25.948;2023-05-23T14:11:43;21.08;;;19.20;;
45274;SDS011;31019;43.780;25.948;2023-05-23T14:14:10;21.20;;;19.40;;
45274;SDS011;31019;43.780;25.948;2023-05-23T14:16:36;21.45;;;19.60;;
45274;SDS011;31019;43.780;25.948;2023-05-23T14:19:03;20.35;;;18.75;;
45274;SDS011;31019;43.780;25.948;2023-05-23T14:21:32;21.38;;;19.67;;
45274;SDS011;31019;43.780;25.948;2023-05-23T14:23:59;20.73;;;19.13;;
45274;SDS011;31019;43.780;25.948;2023-05-23T14:26:27;21.02;;;19.02;;